Lafontaine, Kansas
Current Conditions -  °F | °C
As of 12:52 PM on Thursday 23 Oct 2014 (Local Time) from KCNU Reporting Station
Overcast Overcast  
Wind Chill: 64°   Ceiling: 1500
Heat Index: 64°   Visibility: 10mi
Dew Point: 58°   Wind: 12mph
Humidity: 80%   Direction: 200°SSW
Pressure: 30.13"   Gusts: NA
Location:  37.5252°N, 95.8316°W
Report Text: KCNU 231752Z AUTO 20010KT 10SM OVC015 18/14 A3013 RMK AO2 SLP197 60000 T01780144 10178 20150 58004
Loading
Personal Weather Stations






























Interactive Weather Map
Tropical Storm Tracking
New forecast layout! Learn more

10-Day Weather Forecast

Advertisements
Track Severe Weather on mobile